Time;durP1;ratioP1;P1;durP2;ratioP2;P2;SDS_P1;SDS_P2;PMS_P1;PMS_P2;Temp;Humidity;BMP_temperature;BMP_pressure;BME280_temperature;BME280_humidity;BME280_pressure;Samples;Min_cycle;Max_cycle;Signal;HPM_P1;HPM_P2
2021/12/02 00:01:30;;;;;;;;;;;4.70;99.90;;;;;;4998988;28;19963;-84
2021/12/02 00:03:56;;;;;;;;;;;4.70;99.90;;;;;;5029794;28;19913;-85
2021/12/02 00:06:22;;;;;;;;;;;4.70;99.90;;;;;;5006390;28;19923;-84
2021/12/02 00:08:49;;;;;;;;;;;4.70;99.90;;;;;;4984433;28;19976;-83
2021/12/02 00:11:15;;;;;;;;;;;4.70;99.90;;;;;;5014512;28;19913;-84
2021/12/02 00:16:20;;;;;;;;;;;4.60;99.90;;;;;;5012869;28;19919;-84
2021/12/02 00:21:19;;;;;;;;;;;4.60;99.90;;;;;;5014722;28;19928;-84
2021/12/02 00:23:45;;;;;;;;;;;4.60;99.90;;;;;;5048190;28;19909;-85
2021/12/02 00:26:15;;;;;;;;;;;4.60;99.90;;;;;;4995353;28;19916;-84
2021/12/02 00:28:40;;;;;;;;;;;4.60;99.90;;;;;;5041342;28;19913;-83
2021/12/02 00:31:10;;;;;;;;;;;4.60;99.90;;;;;;5008175;28;20403;-83
2021/12/02 00:33:39;;;;;;;;;;;4.60;99.90;;;;;;4998153;28;19916;-84
2021/12/02 00:36:04;;;;;;;;;;;4.50;99.90;;;;;;5014816;28;19960;-85
2021/12/02 00:38:30;;;;;;;;;;;4.50;99.90;;;;;;5032570;28;19944;-84
2021/12/02 00:40:56;;;;;;;;;;;4.50;99.90;;;;;;5014093;28;20354;-84
2021/12/02 00:43:21;;;;;;;;;;;4.50;99.90;;;;;;5014172;28;19920;-85
2021/12/02 00:45:47;;;;;;;;;;;4.50;99.90;;;;;;5025300;28;20020;-84
2021/12/02 00:48:13;;;;;;;;;;;4.50;99.90;;;;;;4995096;28;19909;-84
2021/12/02 00:50:42;;;;;;;;;;;4.50;99.90;;;;;;5038142;28;19960;-85
2021/12/02 00:53:09;;;;;;;;;;;4.40;99.90;;;;;;5013731;28;19909;-85
2021/12/02 00:55:37;;;;;;;;;;;4.40;99.90;;;;;;5014210;28;19963;-84
2021/12/02 00:58:02;;;;;;;;;;;4.40;99.90;;;;;;5032210;28;19909;-85
2021/12/02 01:00:28;;;;;;;;;;;4.40;99.90;;;;;;5013802;28;19916;-83
2021/12/02 01:02:54;;;;;;;;;;;4.40;99.90;;;;;;5032028;28;19917;-84
2021/12/02 01:05:20;;;;;;;;;;;4.30;99.90;;;;;;5047238;28;20035;-86
2021/12/02 01:07:45;;;;;;;;;;;4.30;99.90;;;;;;5014508;28;19915;-84
2021/12/02 01:10:11;;;;;;;;;;;4.20;99.90;;;;;;4996536;28;19913;-85
2021/12/02 01:12:37;;;;;;;;;;;4.20;99.90;;;;;;4994372;28;19913;-85
2021/12/02 01:15:04;;;;;;;;;;;4.20;99.90;;;;;;5012944;28;19920;-84
2021/12/02 01:17:29;;;;;;;;;;;4.20;99.90;;;;;;5013908;28;20482;-84
2021/12/02 01:19:55;;;;;;;;;;;4.20;99.90;;;;;;4997563;28;19916;-84
2021/12/02 01:22:21;;;;;;;;;;;4.20;99.90;;;;;;4996806;28;19996;-84
2021/12/02 01:24:49;;;;;;;;;;;4.20;99.90;;;;;;5013721;28;19909;-84
2021/12/02 01:27:14;;;;;;;;;;;4.20;99.90;;;;;;4997265;28;19917;-84
2021/12/02 01:29:40;;;;;;;;;;;4.20;99.90;;;;;;4997021;28;19913;-85
2021/12/02 01:32:07;;;;;;;;;;;4.20;99.90;;;;;;5013710;28;20367;-84
2021/12/02 01:34:33;;;;;;;;;;;4.10;99.90;;;;;;5030165;28;20411;-85
2021/12/02 01:37:00;;;;;;;;;;;4.20;99.90;;;;;;5031274;28;19935;-84
2021/12/02 01:39:28;;;;;;;;;;;4.20;99.90;;;;;;5014054;28;19915;-85
2021/12/02 01:41:57;;;;;;;;;;;4.20;99.90;;;;;;5028853;28;19909;-84
2021/12/02 01:44:24;;;;;;;;;;;4.20;99.90;;;;;;5020381;28;19913;-84
2021/12/02 01:46:51;;;;;;;;;;;4.20;99.90;;;;;;4996902;28;19916;-84
2021/12/02 01:49:19;;;;;;;;;;;4.20;99.90;;;;;;5002673;28;20557;-84
2021/12/02 01:51:46;;;;;;;;;;;4.20;99.90;;;;;;4994005;28;20009;-84
2021/12/02 01:54:14;;;;;;;;;;;4.20;99.90;;;;;;4997628;28;19967;-83
2021/12/02 01:56:45;;;;;;;;;;;4.20;99.90;;;;;;5013171;28;19920;-84
2021/12/02 01:59:13;;;;;;;;;;;4.20;99.90;;;;;;5034756;28;19913;-84
2021/12/02 02:01:40;;;;;;;;;;;4.20;99.90;;;;;;5010163;28;19916;-85
2021/12/02 02:04:06;;;;;;;;;;;4.20;99.90;;;;;;5021948;28;19917;-85
2021/12/02 02:06:39;;;;;;;;;;;4.20;99.90;;;;;;4996656;28;20394;-84
2021/12/02 02:09:06;;;;;;;;;;;4.30;99.90;;;;;;4993518;28;19910;-85
2021/12/02 02:11:31;;;;;;;;;;;4.30;99.90;;;;;;4990253;28;19921;-84
2021/12/02 02:14:15;;;;;;;;;;;4.20;99.90;;;;;;5012233;28;19913;-88
2021/12/02 02:16:42;;;;;;;;;;;4.20;99.90;;;;;;5009750;28;19937;-84
2021/12/02 02:19:11;;;;;;;;;;;4.30;99.90;;;;;;5030583;28;19916;-84
2021/12/02 02:21:37;;;;;;;;;;;4.30;99.90;;;;;;5030253;28;19913;-84
2021/12/02 02:24:04;;;;;;;;;;;4.30;99.90;;;;;;5006543;28;20391;-84
2021/12/02 02:26:34;;;;;;;;;;;4.30;99.90;;;;;;5029115;28;20291;-85
2021/12/02 02:29:01;;;;;;;;;;;4.20;99.90;;;;;;5029636;28;19909;-84
2021/12/02 02:31:28;;;;;;;;;;;4.30;99.90;;;;;;4992710;28;19957;-84
2021/12/02 02:33:54;;;;;;;;;;;4.30;99.90;;;;;;5012188;28;19909;-84
2021/12/02 02:36:20;;;;;;;;;;;4.30;99.90;;;;;;5045718;28;19912;-84
2021/12/02 02:38:55;;;;;;;;;;;4.30;99.90;;;;;;5013164;28;20363;-84
2021/12/02 02:41:29;;;;;;;;;;;4.30;99.90;;;;;;4995278;28;19909;-84
2021/12/02 02:43:57;;;;;;;;;;;4.30;99.90;;;;;;5012568;28;19915;-84
2021/12/02 02:46:24;;;;;;;;;;;4.30;99.90;;;;;;5003391;28;19955;-85
2021/12/02 02:48:50;;;;;;;;;;;4.30;99.90;;;;;;5012861;28;19959;-85
2021/12/02 02:51:16;;;;;;;;;;;4.30;99.90;;;;;;5012376;28;19940;-84
2021/12/02 02:53:41;;;;;;;;;;;4.30;99.90;;;;;;5012690;28;20375;-84
2021/12/02 02:56:11;;;;;;;;;;;4.30;99.90;;;;;;5043785;28;20506;-84
2021/12/02 03:03:48;;;;;;;;;;;4.30;99.90;;;;;;5015816;28;19913;-84
2021/12/02 03:08:53;;;;;;;;;;;4.30;99.90;;;;;;5033764;28;19915;-85
2021/12/02 03:11:19;;;;;;;;;;;4.30;99.90;;;;;;5016543;28;19959;-86
2021/12/02 03:13:50;;;;;;;;;;;4.30;99.90;;;;;;5030286;28;19932;-85
2021/12/02 03:19:00;;;;;;;;;;;4.30;99.90;;;;;;5048564;28;19909;-86
2021/12/02 03:21:26;;;;;;;;;;;4.20;99.90;;;;;;5002968;28;20403;-85
2021/12/02 03:23:56;;;;;;;;;;;4.20;99.90;;;;;;5010073;28;19966;-86
2021/12/02 03:26:22;;;;;;;;;;;4.10;99.90;;;;;;5000941;28;20341;-86
2021/12/02 03:28:48;;;;;;;;;;;4.10;99.90;;;;;;5000649;28;19909;-85
2021/12/02 03:31:14;;;;;;;;;;;4.00;99.90;;;;;;5020059;28;19912;-85
2021/12/02 03:33:41;;;;;;;;;;;3.90;99.90;;;;;;5032968;28;20401;-85
2021/12/02 03:36:07;;;;;;;;;;;3.90;99.90;;;;;;4998921;28;19913;-85
2021/12/02 03:38:33;;;;;;;;;;;3.90;99.90;;;;;;4995965;28;20009;-85
2021/12/02 03:40:59;;;;;;;;;;;3.80;99.90;;;;;;5042073;28;19913;-86
2021/12/02 03:43:24;;;;;;;;;;;3.80;99.90;;;;;;5015369;28;19913;-85
2021/12/02 03:45:50;;;;;;;;;;;3.80;99.90;;;;;;5012911;28;20008;-86
2021/12/02 03:48:16;;;;;;;;;;;3.80;99.90;;;;;;4999706;28;19909;-86
2021/12/02 03:50:42;;;;;;;;;;;3.70;99.90;;;;;;5014621;28;19963;-85
2021/12/02 03:53:07;;;;;;;;;;;3.70;99.90;;;;;;5015672;28;19909;-86
2021/12/02 03:55:33;;;;;;;;;;;3.70;99.90;;;;;;5015621;28;20015;-85
2021/12/02 03:57:58;;;;;;;;;;;3.70;99.90;;;;;;5015784;28;19963;-85
2021/12/02 04:00:24;;;;;;;;;;;3.70;99.90;;;;;;4998977;28;19959;-85
2021/12/02 04:02:50;;;;;;;;;;;3.70;99.90;;;;;;5012991;28;19956;-86
2021/12/02 04:05:16;;;;;;;;;;;3.60;99.90;;;;;;4999429;28;19909;-85
2021/12/02 04:07:42;;;;;;;;;;;3.60;99.90;;;;;;5030493;28;20340;-85
2021/12/02 04:10:08;;;;;;;;;;;3.60;99.90;;;;;;5014369;28;20016;-86
2021/12/02 04:12:47;;;;;;;;;;;3.60;99.90;;;;;;5015278;28;19913;-86
2021/12/02 04:15:21;;;;;;;;;;;3.60;99.90;;;;;;4999099;28;19913;-85
2021/12/02 04:17:48;;;;;;;;;;;3.60;99.90;;;;;;4999112;28;20331;-85
2021/12/02 04:20:14;;;;;;;;;;;3.60;99.90;;;;;;4998526;28;19916;-85
2021/12/02 04:22:41;;;;;;;;;;;3.50;99.90;;;;;;5032160;28;20431;-85
2021/12/02 04:25:07;;;;;;;;;;;3.50;99.90;;;;;;4998665;28;19905;-85
2021/12/02 04:27:33;;;;;;;;;;;3.50;99.90;;;;;;4982135;28;20483;-85
2021/12/02 04:29:59;;;;;;;;;;;3.50;99.90;;;;;;5015839;23;19923;-78
2021/12/02 04:32:24;;;;;;;;;;;3.50;99.90;;;;;;4999635;28;19956;-79
2021/12/02 04:34:50;;;;;;;;;;;3.40;99.90;;;;;;5012764;28;19940;-82
2021/12/02 04:37:15;;;;;;;;;;;3.40;99.90;;;;;;5002939;28;20449;-81
2021/12/02 04:39:41;;;;;;;;;;;3.40;99.90;;;;;;4996016;28;19928;-81
2021/12/02 04:42:07;;;;;;;;;;;3.40;99.90;;;;;;4986295;28;19913;-82
2021/12/02 04:44:32;;;;;;;;;;;3.30;99.90;;;;;;5013072;28;19910;-81
2021/12/02 04:46:58;;;;;;;;;;;3.40;99.90;;;;;;5004674;28;19914;-82
2021/12/02 04:49:23;;;;;;;;;;;3.30;99.90;;;;;;4995589;28;19909;-81
2021/12/02 04:51:49;;;;;;;;;;;3.30;99.90;;;;;;4992211;28;19920;-83
2021/12/02 04:54:15;;;;;;;;;;;3.30;99.90;;;;;;4978209;28;19944;-82
2021/12/02 04:56:41;;;;;;;;;;;3.30;99.90;;;;;;4993902;28;19913;-82
2021/12/02 04:59:06;;;;;;;;;;;3.30;99.90;;;;;;4995829;28;20459;-81
2021/12/02 05:01:32;;;;;;;;;;;3.30;99.90;;;;;;5012715;28;20299;-81
2021/12/02 05:03:57;;;;;;;;;;;3.30;99.90;;;;;;4992386;28;19918;-83
2021/12/02 05:06:23;;;;;;;;;;;3.30;99.90;;;;;;4978891;28;20578;-82
2021/12/02 05:08:48;;;;;;;;;;;3.30;99.90;;;;;;4995928;28;20731;-81
2021/12/02 05:11:14;;;;;;;;;;;3.30;99.90;;;;;;4979544;28;19913;-80
2021/12/02 05:13:40;;;;;;;;;;;3.30;99.90;;;;;;4995172;28;19920;-82
2021/12/02 05:16:05;;;;;;;;;;;3.30;99.90;;;;;;4973016;28;20011;-83
2021/12/02 05:18:31;;;;;;;;;;;3.30;99.90;;;;;;4991511;28;19976;-82
2021/12/02 05:20:57;;;;;;;;;;;3.30;99.90;;;;;;4976936;28;19924;-79
2021/12/02 05:23:23;;;;;;;;;;;3.30;99.90;;;;;;4994927;28;19952;-81
2021/12/02 05:25:48;;;;;;;;;;;3.30;99.90;;;;;;4994762;28;19910;-81
2021/12/02 05:28:15;;;;;;;;;;;3.20;99.90;;;;;;4987264;28;19920;-77
2021/12/02 05:30:41;;;;;;;;;;;3.20;99.90;;;;;;4993270;28;19996;-80
2021/12/02 05:33:07;;;;;;;;;;;3.20;99.90;;;;;;4994196;28;19916;-80
2021/12/02 05:35:32;;;;;;;;;;;3.20;99.90;;;;;;5002840;28;19961;-81
2021/12/02 05:37:58;;;;;;;;;;;3.30;99.90;;;;;;4986998;28;20376;-81
2021/12/02 05:40:23;;;;;;;;;;;3.30;99.90;;;;;;5014493;23;20332;-82
2021/12/02 05:42:49;;;;;;;;;;;3.30;99.90;;;;;;5049531;28;20007;-81
2021/12/02 05:45:15;;;;;;;;;;;3.30;99.90;;;;;;5048146;28;19923;-81
2021/12/02 05:47:40;;;;;;;;;;;3.30;99.90;;;;;;5030844;28;20393;-82
2021/12/02 05:50:06;;;;;;;;;;;3.40;99.90;;;;;;5030666;28;19909;-81
2021/12/02 05:52:31;;;;;;;;;;;3.40;99.90;;;;;;5025819;28;19913;-81
2021/12/02 05:54:58;;;;;;;;;;;3.40;99.90;;;;;;5045279;28;19921;-81
2021/12/02 05:57:23;;;;;;;;;;;3.40;99.90;;;;;;5034919;28;19916;-81
2021/12/02 05:59:49;;;;;;;;;;;3.50;99.90;;;;;;5041346;28;19908;-82
2021/12/02 06:02:15;;;;;;;;;;;3.40;99.90;;;;;;5029461;28;19920;-81
2021/12/02 06:04:42;;;;;;;;;;;3.40;99.90;;;;;;5037991;28;19912;-82
2021/12/02 06:07:08;;;;;;;;;;;3.40;99.90;;;;;;5019243;28;20545;-82
2021/12/02 06:09:33;;;;;;;;;;;3.40;99.90;;;;;;5020026;28;20004;-82
2021/12/02 06:11:59;;;;;;;;;;;3.40;99.90;;;;;;5022427;28;19974;-81
2021/12/02 06:14:25;;;;;;;;;;;3.40;99.90;;;;;;5039788;28;19959;-81
2021/12/02 06:16:50;;;;;;;;;;;3.30;99.90;;;;;;5028386;28;19961;-81
2021/12/02 06:19:16;;;;;;;;;;;3.30;99.90;;;;;;5026425;28;19920;-81
2021/12/02 06:21:41;;;;;;;;;;;3.30;99.90;;;;;;5011176;28;20015;-82
2021/12/02 06:24:08;;;;;;;;;;;3.30;99.90;;;;;;5040225;28;19999;-81
2021/12/02 06:26:34;;;;;;;;;;;3.30;99.90;;;;;;5029191;28;19915;-81
2021/12/02 06:28:59;;;;;;;;;;;3.30;99.90;;;;;;5030231;28;19905;-81
2021/12/02 06:31:25;;;;;;;;;;;3.30;99.90;;;;;;5033291;28;19995;-81
2021/12/02 06:33:50;;;;;;;;;;;3.30;99.90;;;;;;5013707;28;19917;-81
2021/12/02 06:36:16;;;;;;;;;;;3.20;99.90;;;;;;5034567;28;19921;-81
2021/12/02 06:38:42;;;;;;;;;;;3.20;99.90;;;;;;5037974;28;19999;-81
2021/12/02 06:41:08;;;;;;;;;;;3.20;99.90;;;;;;5016172;28;20015;-81
2021/12/02 06:43:34;;;;;;;;;;;3.20;99.90;;;;;;5025895;28;19981;-81
2021/12/02 06:45:59;;;;;;;;;;;3.20;99.90;;;;;;5003431;28;19917;-81
2021/12/02 06:48:25;;;;;;;;;;;3.10;99.90;;;;;;5037598;28;20302;-81
2021/12/02 06:50:51;;;;;;;;;;;3.10;99.90;;;;;;5046821;28;19913;-81
2021/12/02 06:53:17;;;;;;;;;;;3.10;99.90;;;;;;5033910;28;19912;-81
2021/12/02 06:55:43;;;;;;;;;;;3.00;99.90;;;;;;5017554;28;21347;-81
2021/12/02 06:58:08;;;;;;;;;;;3.00;99.90;;;;;;5034633;28;19920;-81
2021/12/02 07:00:34;;;;;;;;;;;2.90;99.90;;;;;;5025153;28;19913;-81
2021/12/02 07:03:01;;;;;;;;;;;2.90;99.90;;;;;;5010570;28;19924;-81
2021/12/02 07:05:29;;;;;;;;;;;2.90;99.90;;;;;;5034404;28;20007;-81
2021/12/02 07:07:55;;;;;;;;;;;2.80;99.90;;;;;;5030501;28;19909;-81
2021/12/02 07:10:24;;;;;;;;;;;2.80;99.90;;;;;;5039394;28;19913;-81
2021/12/02 07:12:52;;;;;;;;;;;2.80;99.90;;;;;;5000266;28;19920;-81
2021/12/02 07:15:25;;;;;;;;;;;2.80;99.90;;;;;;5030447;28;20446;-81
2021/12/02 07:17:55;;;;;;;;;;;2.80;99.90;;;;;;5026445;28;20075;-81
2021/12/02 07:20:21;;;;;;;;;;;2.80;99.90;;;;;;5011756;28;19909;-81
2021/12/02 07:22:47;;;;;;;;;;;2.80;99.90;;;;;;5028519;28;20429;-81
2021/12/02 07:25:12;;;;;;;;;;;2.80;99.90;;;;;;5030187;28;19913;-81
2021/12/02 07:27:38;;;;;;;;;;;2.80;99.90;;;;;;5035372;28;19948;-81
2021/12/02 07:30:04;;;;;;;;;;;2.70;99.90;;;;;;5037087;28;19925;-81
2021/12/02 07:32:36;;;;;;;;;;;2.70;99.90;;;;;;5027127;28;20440;-81
2021/12/02 07:35:04;;;;;;;;;;;2.70;99.90;;;;;;5031484;28;19940;-81
2021/12/02 07:37:29;;;;;;;;;;;2.60;99.90;;;;;;5005715;28;19920;-81
2021/12/02 07:39:55;;;;;;;;;;;2.60;99.90;;;;;;5030902;28;19917;-81
2021/12/02 07:42:21;;;;;;;;;;;2.50;99.90;;;;;;5031575;28;19962;-81
2021/12/02 07:44:47;;;;;;;;;;;2.50;99.90;;;;;;5030798;28;19940;-80
2021/12/02 07:47:12;;;;;;;;;;;2.40;99.90;;;;;;5018875;28;19996;-81
2021/12/02 07:49:39;;;;;;;;;;;2.30;99.90;;;;;;5014056;28;19917;-80
2021/12/02 07:52:05;;;;;;;;;;;2.30;99.90;;;;;;5029731;28;19916;-81
2021/12/02 07:54:33;;;;;;;;;;;2.20;99.90;;;;;;5031900;28;20001;-81
2021/12/02 07:56:59;;;;;;;;;;;2.20;99.90;;;;;;5028304;28;19964;-81
2021/12/02 07:59:24;;;;;;;;;;;2.10;99.90;;;;;;5033281;28;20389;-81
2021/12/02 08:01:51;;;;;;;;;;;2.10;99.90;;;;;;5029217;28;19955;-81
2021/12/02 08:04:16;;;;;;;;;;;2.00;99.90;;;;;;5037976;28;19908;-81
2021/12/02 08:06:42;;;;;;;;;;;1.90;99.90;;;;;;5038186;28;20008;-81
2021/12/02 08:09:12;;;;;;;;;;;1.90;99.90;;;;;;5025652;28;19917;-80
2021/12/02 08:11:37;;;;;;;;;;;1.80;99.90;;;;;;5015417;28;20166;-81
2021/12/02 08:14:07;;;;;;;;;;;1.80;99.90;;;;;;5033432;28;19913;-81
2021/12/02 08:16:33;;;;;;;;;;;1.70;99.90;;;;;;5027159;28;19917;-81
2021/12/02 08:19:01;;;;;;;;;;;1.70;99.90;;;;;;5042765;28;20494;-81
2021/12/02 08:21:26;;;;;;;;;;;1.70;99.90;;;;;;5014570;28;19912;-81
2021/12/02 08:23:52;;;;;;;;;;;1.70;99.90;;;;;;5040413;28;19920;-81
2021/12/02 08:26:17;;;;;;;;;;;1.60;99.90;;;;;;5042924;28;19920;-80
2021/12/02 08:28:43;;;;;;;;;;;1.60;99.90;;;;;;5026028;28;19917;-81
2021/12/02 08:31:09;;;;;;;;;;;1.60;99.90;;;;;;5038056;28;19919;-80
2021/12/02 08:33:34;;;;;;;;;;;1.60;99.90;;;;;;5014860;28;19956;-81
2021/12/02 08:36:00;;;;;;;;;;;1.60;99.90;;;;;;5002724;28;19927;-80
2021/12/02 08:38:31;;;;;;;;;;;1.60;99.90;;;;;;5041367;28;19913;-80
2021/12/02 08:40:58;;;;;;;;;;;1.60;99.90;;;;;;5029217;28;20012;-80
2021/12/02 08:43:24;;;;;;;;;;;1.60;99.90;;;;;;5033572;28;19909;-80
2021/12/02 08:45:50;;;;;;;;;;;1.70;99.90;;;;;;5034223;28;20451;-80
2021/12/02 08:48:15;;;;;;;;;;;1.70;99.90;;;;;;5039591;28;19999;-80
2021/12/02 08:50:42;;;;;;;;;;;1.70;99.90;;;;;;5034164;28;19913;-80
2021/12/02 08:53:08;;;;;;;;;;;1.70;99.90;;;;;;5035022;28;19920;-80
2021/12/02 08:55:36;;;;;;;;;;;1.70;99.90;;;;;;5043981;28;19955;-80
2021/12/02 08:58:04;;;;;;;;;;;1.70;99.90;;;;;;5038420;28;19939;-80
2021/12/02 09:00:34;;;;;;;;;;;1.70;99.90;;;;;;5037939;28;19917;-79
2021/12/02 09:03:00;;;;;;;;;;;1.70;99.90;;;;;;5036368;28;19909;-79
2021/12/02 09:05:26;;;;;;;;;;;1.60;99.90;;;;;;5035626;28;19911;-79
2021/12/02 09:07:52;;;;;;;;;;;1.60;99.90;;;;;;5036360;28;20359;-79
2021/12/02 09:10:21;;;;;;;;;;;1.60;99.90;;;;;;5032173;28;19976;-79
2021/12/02 09:12:48;;;;;;;;;;;1.60;99.90;;;;;;5033134;28;20359;-78
2021/12/02 09:15:13;;;;;;;;;;;1.60;99.90;;;;;;5034258;28;19971;-78
2021/12/02 09:17:39;;;;;;;;;;;1.50;99.90;;;;;;5020439;28;20372;-78
2021/12/02 09:20:07;;;;;;;;;;;1.50;99.90;;;;;;5017339;28;19920;-77
2021/12/02 09:22:32;;;;;;;;;;;1.50;99.90;;;;;;5020386;28;19920;-78
2021/12/02 09:24:58;;;;;;;;;;;1.50;99.90;;;;;;5026307;28;19992;-78
2021/12/02 09:27:24;;;;;;;;;;;1.50;99.90;;;;;;5031725;28;19921;-78
2021/12/02 09:29:50;;;;;;;;;;;1.50;99.90;;;;;;5028699;28;19921;-77
2021/12/02 09:32:16;;;;;;;;;;;1.40;99.90;;;;;;5028821;28;19909;-78
2021/12/02 09:34:41;;;;;;;;;;;1.40;99.90;;;;;;5025046;28;19925;-77
2021/12/02 09:37:07;;;;;;;;;;;1.40;99.90;;;;;;5026388;28;19913;-77
2021/12/02 09:39:34;;;;;;;;;;;1.40;99.90;;;;;;5030094;28;20387;-77
2021/12/02 09:42:00;;;;;;;;;;;1.40;99.90;;;;;;5028102;28;19939;-77
2021/12/02 09:44:26;;;;;;;;;;;1.40;99.90;;;;;;5029567;28;19916;-77
2021/12/02 09:46:52;;;;;;;;;;;1.40;99.90;;;;;;5025403;28;20370;-77
2021/12/02 09:49:23;;;;;;;;;;;1.50;99.90;;;;;;5023658;28;20007;-77
2021/12/02 09:54:20;;;;;;;;;;;1.50;99.90;;;;;;5027073;28;19913;-78
2021/12/02 09:56:49;;;;;;;;;;;1.50;99.90;;;;;;5026765;28;19916;-78
2021/12/02 09:59:26;;;;;;;;;;;1.50;99.90;;;;;;5032388;28;19916;-78
2021/12/02 10:01:55;;;;;;;;;;;1.60;99.90;;;;;;5024581;28;19919;-77
2021/12/02 10:04:22;;;;;;;;;;;1.60;99.90;;;;;;5032524;28;19917;-77
2021/12/02 10:06:48;;;;;;;;;;;1.70;99.90;;;;;;5018961;28;19913;-77
2021/12/02 10:09:23;;;;;;;;;;;1.80;99.90;;;;;;5025627;28;20417;-77
2021/12/02 10:11:55;;;;;;;;;;;1.80;99.90;;;;;;5024202;28;20384;-78
2021/12/02 10:14:34;;;;;;;;;;;1.70;99.90;;;;;;5029816;28;19917;-77
2021/12/02 10:17:06;;;;;;;;;;;1.80;99.90;;;;;;5036428;28;19962;-77
2021/12/02 10:19:32;;;;;;;;;;;1.80;99.90;;;;;;5027604;28;19948;-77
2021/12/02 10:22:07;;;;;;;;;;;1.80;99.90;;;;;;5028202;28;20476;-77
2021/12/02 10:24:40;;;;;;;;;;;1.80;99.90;;;;;;5032213;28;19920;-77
2021/12/02 10:27:05;;;;;;;;;;;1.90;99.90;;;;;;5034562;28;19928;-77
2021/12/02 10:29:32;;;;;;;;;;;1.90;99.90;;;;;;5027281;28;19913;-78
2021/12/02 10:32:04;;;;;;;;;;;1.90;99.90;;;;;;5028825;28;19913;-78
2021/12/02 10:34:30;;;;;;;;;;;2.00;99.90;;;;;;5023575;28;20429;-78
2021/12/02 10:37:07;;;;;;;;;;;2.00;99.90;;;;;;5011595;28;19918;-78
2021/12/02 10:39:32;;;;;;;;;;;2.10;99.90;;;;;;5031423;28;19917;-78
2021/12/02 10:42:05;;;;;;;;;;;2.10;99.90;;;;;;5027626;28;19964;-79
2021/12/02 10:44:35;;;;;;;;;;;2.20;99.90;;;;;;5029540;28;19917;-78
2021/12/02 10:47:03;;;;;;;;;;;2.30;99.90;;;;;;5036258;28;19923;-79
2021/12/02 10:49:30;;;;;;;;;;;2.50;99.90;;;;;;5034093;28;19975;-79
2021/12/02 10:51:58;;;;;;;;;;;2.50;99.90;;;;;;5007882;28;19984;-79
2021/12/02 10:54:25;;;;;;;;;;;2.70;99.90;;;;;;5024646;28;19913;-79
2021/12/02 10:56:52;;;;;;;;;;;2.70;99.90;;;;;;5050671;28;19916;-79
2021/12/02 10:59:31;;;;;;;;;;;2.60;99.90;;;;;;5043915;28;19912;-79
2021/12/02 11:02:02;;;;;;;;;;;2.70;99.90;;;;;;5034156;28;20009;-80
2021/12/02 11:04:34;;;;;;;;;;;2.60;99.90;;;;;;5046233;28;20282;-80
2021/12/02 11:07:01;;;;;;;;;;;2.60;99.90;;;;;;5037036;28;20004;-80
2021/12/02 11:09:29;;;;;;;;;;;2.60;99.90;;;;;;5034896;28;19909;-80
2021/12/02 11:12:08;;;;;;;;;;;2.60;99.90;;;;;;5037523;28;19955;-80
2021/12/02 11:14:35;;;;;;;;;;;2.50;99.90;;;;;;5013352;28;19909;-80
2021/12/02 11:17:11;;;;;;;;;;;2.50;99.90;;;;;;5038884;28;19912;-81
2021/12/02 11:19:36;;;;;;;;;;;2.50;99.90;;;;;;5039383;28;19931;-80
2021/12/02 11:22:10;;;;;;;;;;;2.40;99.90;;;;;;5037580;28;19909;-81
2021/12/02 11:24:36;;;;;;;;;;;2.40;99.90;;;;;;5035873;28;19917;-81
2021/12/02 11:27:06;;;;;;;;;;;2.40;99.90;;;;;;5043363;28;19913;-81
2021/12/02 11:29:48;;;;;;;;;;;2.40;99.90;;;;;;5046710;28;20310;-79
2021/12/02 11:32:33;;;;;;;;;;;2.50;99.90;;;;;;5016387;28;19916;-79
2021/12/02 11:35:03;;;;;;;;;;;2.50;99.90;;;;;;5018185;28;19956;-80
2021/12/02 11:37:29;;;;;;;;;;;2.60;99.90;;;;;;5039547;28;19916;-79
2021/12/02 11:39:56;;;;;;;;;;;2.60;99.90;;;;;;5042214;28;19905;-79
2021/12/02 11:42:21;;;;;;;;;;;2.70;99.90;;;;;;5025392;22;20423;-90
2021/12/02 11:44:48;;;;;;;;;;;2.70;99.90;;;;;;4972919;28;19950;-90
2021/12/02 11:47:13;;;;;;;;;;;2.70;99.90;;;;;;4949136;28;20363;-90
2021/12/02 11:49:40;;;;;;;;;;;2.80;99.90;;;;;;4974394;28;19921;-90
2021/12/02 11:52:07;;;;;;;;;;;2.80;99.90;;;;;;4981808;28;20331;-90
2021/12/02 11:54:32;;;;;;;;;;;2.80;99.90;;;;;;4994435;28;19913;-90
2021/12/02 11:56:58;;;;;;;;;;;2.80;99.90;;;;;;4988518;28;19937;-90
2021/12/02 11:59:24;;;;;;;;;;;2.80;99.90;;;;;;4981382;28;19914;-90
2021/12/02 12:01:54;;;;;;;;;;;2.80;99.90;;;;;;4974564;28;20395;-88
2021/12/02 12:04:20;;;;;;;;;;;2.70;99.90;;;;;;4969501;28;20009;-89
2021/12/02 12:06:51;;;;;;;;;;;2.80;99.90;;;;;;4982821;28;19937;-88
2021/12/02 12:09:18;;;;;;;;;;;2.70;99.90;;;;;;4989089;28;20000;-87
2021/12/02 12:11:45;;;;;;;;;;;2.70;99.90;;;;;;4962246;28;19961;-86
2021/12/02 12:14:13;;;;;;;;;;;2.80;99.90;;;;;;4961062;28;20008;-87
2021/12/02 12:16:49;;;;;;;;;;;2.90;99.90;;;;;;4961325;28;20329;-87
2021/12/02 12:19:18;;;;;;;;;;;2.80;99.90;;;;;;4973825;28;19917;-86
2021/12/02 12:21:49;;;;;;;;;;;2.80;99.90;;;;;;4976743;28;19957;-86
2021/12/02 12:24:15;;;;;;;;;;;2.80;99.90;;;;;;4959742;28;20268;-88
2021/12/02 12:26:44;;;;;;;;;;;2.80;99.90;;;;;;4946504;28;20049;-86
2021/12/02 12:29:12;;;;;;;;;;;2.70;99.90;;;;;;4956037;28;20357;-87
2021/12/02 12:32:11;;;;;;;;;;;2.70;99.90;;;;;;4973946;28;19918;-86
2021/12/02 12:37:23;;;;;;;;;;;2.60;99.90;;;;;;4996010;28;19910;-86
2021/12/02 12:40:04;;;;;;;;;;;2.60;99.90;;;;;;4954401;28;19910;-86
2021/12/02 12:42:29;;;;;;;;;;;2.60;99.90;;;;;;4972855;28;19969;-86
2021/12/02 12:44:56;;;;;;;;;;;2.60;99.90;;;;;;4962420;28;20332;-85
2021/12/02 12:47:42;;;;;;;;;;;2.60;99.90;;;;;;4984109;28;19913;-90
2021/12/02 12:50:49;;;;;;;;;;;2.60;99.90;;;;;;4949551;28;19957;-89
2021/12/02 12:53:19;;;;;;;;;;;2.50;99.90;;;;;;4952249;28;19910;-88
2021/12/02 12:55:55;;;;;;;;;;;2.60;99.90;;;;;;4926283;28;19914;-88
2021/12/02 12:58:22;;;;;;;;;;;2.60;99.90;;;;;;4945067;28;19913;-88
2021/12/02 13:00:50;;;;;;;;;;;2.60;99.90;;;;;;4957790;28;20378;-88
2021/12/02 13:03:31;;;;;;;;;;;2.60;99.90;;;;;;4973264;28;19910;-85
2021/12/02 13:06:01;;;;;;;;;;;2.60;99.90;;;;;;4969213;28;20375;-88
2021/12/02 13:08:38;;;;;;;;;;;2.60;99.90;;;;;;4977352;28;20376;-87
2021/12/02 13:11:15;;;;;;;;;;;2.70;99.90;;;;;;4972778;28;19973;-86
2021/12/02 13:13:41;;;;;;;;;;;2.70;99.90;;;;;;4954644;28;19969;-87
2021/12/02 13:16:09;;;;;;;;;;;2.80;99.90;;;;;;4962365;28;19910;-89
2021/12/02 13:18:38;;;;;;;;;;;2.80;99.90;;;;;;4958541;28;20384;-87
2021/12/02 13:21:22;;;;;;;;;;;2.80;99.90;;;;;;4971618;28;20430;-87
2021/12/02 13:24:08;;;;;;;;;;;2.80;99.90;;;;;;4974195;28;19957;-86
2021/12/02 13:26:35;;;;;;;;;;;2.80;99.90;;;;;;4951224;28;19979;-88
2021/12/02 13:29:09;;;;;;;;;;;2.80;99.90;;;;;;4960551;28;20299;-88
2021/12/02 13:31:35;;;;;;;;;;;2.80;99.90;;;;;;4972542;28;19917;-86
2021/12/02 13:34:08;;;;;;;;;;;2.80;99.90;;;;;;4976828;28;19961;-88
2021/12/02 13:36:36;;;;;;;;;;;2.80;99.90;;;;;;4958072;28;20476;-87
2021/12/02 13:39:07;;;;;;;;;;;2.70;99.90;;;;;;4976398;28;19921;-87
2021/12/02 13:41:35;;;;;;;;;;;2.70;99.90;;;;;;4972972;28;20410;-88
2021/12/02 13:44:03;;;;;;;;;;;2.70;99.90;;;;;;4980464;28;19906;-87
2021/12/02 13:46:32;;;;;;;;;;;2.70;99.90;;;;;;4956442;28;19957;-87
2021/12/02 13:48:59;;;;;;;;;;;2.60;99.90;;;;;;4971716;28;20308;-87
2021/12/02 13:54:17;;;;;;;;;;;2.60;99.90;;;;;;4970139;28;19910;-87
2021/12/02 13:56:43;;;;;;;;;;;2.60;99.90;;;;;;4960164;28;20288;-87
2021/12/02 13:59:17;;;;;;;;;;;2.60;99.90;;;;;;4972925;28;19910;-87
2021/12/02 14:01:50;;;;;;;;;;;2.60;99.90;;;;;;4972104;28;20411;-87
2021/12/02 14:04:16;;;;;;;;;;;2.60;99.90;;;;;;4969849;28;19921;-85
2021/12/02 14:06:42;;;;;;;;;;;2.50;99.90;;;;;;4974204;28;19914;-86
2021/12/02 14:09:14;;;;;;;;;;;2.50;99.90;;;;;;4976062;28;20395;-86
2021/12/02 14:11:40;;;;;;;;;;;2.50;99.90;;;;;;4956761;28;19918;-87
2021/12/02 14:14:06;;;;;;;;;;;2.50;99.90;;;;;;4976849;28;19910;-87
2021/12/02 14:16:31;;;;;;;;;;;2.50;99.90;;;;;;4959855;28;20380;-87
2021/12/02 14:19:07;;;;;;;;;;;2.50;99.90;;;;;;4959697;28;20281;-88
2021/12/02 14:21:33;;;;;;;;;;;2.50;99.90;;;;;;4969288;28;20010;-88
2021/12/02 14:23:58;;;;;;;;;;;2.50;99.90;;;;;;4958093;28;19910;-88
2021/12/02 14:26:26;;;;;;;;;;;2.40;99.90;;;;;;4974892;28;19925;-87
2021/12/02 14:28:52;;;;;;;;;;;2.40;99.90;;;;;;4973738;28;19981;-87
2021/12/02 14:31:21;;;;;;;;;;;2.40;99.90;;;;;;4969831;28;19945;-89
2021/12/02 14:33:48;;;;;;;;;;;2.40;99.90;;;;;;4987550;28;19910;-88
2021/12/02 14:36:14;;;;;;;;;;;2.40;99.90;;;;;;4977114;28;19913;-87
2021/12/02 14:38:41;;;;;;;;;;;2.30;99.90;;;;;;4957356;28;20339;-87
2021/12/02 14:41:10;;;;;;;;;;;2.40;99.90;;;;;;4969935;28;19918;-88
2021/12/02 14:43:35;;;;;;;;;;;2.30;99.90;;;;;;4955767;28;19910;-87
2021/12/02 14:46:16;;;;;;;;;;;2.30;99.90;;;;;;4977741;28;19914;-88
2021/12/02 14:48:42;;;;;;;;;;;2.30;99.90;;;;;;4975165;28;19914;-87
2021/12/02 14:51:12;;;;;;;;;;;2.30;99.90;;;;;;4955189;28;19914;-88
2021/12/02 14:53:40;;;;;;;;;;;2.20;99.90;;;;;;4953109;28;19910;-87
2021/12/02 14:56:22;;;;;;;;;;;2.20;99.90;;;;;;4963059;28;19971;-87
2021/12/02 14:59:14;;;;;;;;;;;2.20;99.90;;;;;;4963570;28;19950;-88